Nearby METAR Reports


KPVF - Placerville, California, USA
Distance from station: E 5mi, 14km
Updated: 07/13/2024 2:35pm
Clear
Clear
 Wind from WSW
Wind: WSW 8 mph , 13 km/h
Temperature: 99°F , 37°C
Dew Point: 48°F , 9°C
Humidity: 18%
Barometer: 30.01 inHg , 1016.3 hPa
Clouds: Clear
Visibility: 10 miles , 16 km
2024/07/13 21:35 KPVF 132135Z AUTO 25007KT 200V260 10SM CLR 37/09 A3001 RMK AO1
KAUN - Auburn, California, USA
Distance from station: NE 37mi, 14km
Updated: 07/13/2024 2:55pm
Clear
Clear
 Wind from W
Wind: W 9 mph , 15 km/h
Temperature: 99°F , 37°C
Dew Point: 54°F , 12°C
Humidity: 22%
Barometer: 29.92 inHg , 1013.2 hPa
Clouds: Clear
Visibility: 10 miles , 16 km
2024/07/13 21:55 KAUN 132155Z AUTO 26008KT 10SM CLR 37/12 A2992 RMK A01
 
KMHR - Mather, California, USA
Distance from station: NNW 30mi, 23km
Updated: 07/13/2024 2:55pm
Clear
Clear
 Wind from SW
Wind: SW 12 mph , 19 km/h
Temperature: 97°F , 36°C
Dew Point: 54°F , 12°C
Humidity: 23%
Barometer: 29.81 inHg , 1009.5 hPa
Clouds: Clear
Visibility: 10 miles , 16 km
2024/07/13 21:55 KMHR 132155Z AUTO 23010KT 10SM CLR 36/12 A2981 RMK A01 LTG DSNT E AND SE
KSAC - Sacramento, California, USA
Distance from station: WNW 45mi, 50km
Updated: 07/13/2024 2:53pm
Clear
Clear
 Wind from SW
Wind: SW 14 mph , 22 km/h
Temperature: 93°F , 34°C
Dew Point: 55°F , 13°C
Humidity: 28%
Barometer: 29.83 inHg , 1010.2 hPa
Clouds: Clear
Visibility: 10 miles , 16 km
2024/07/13 21:53 KSAC 132153Z 23012KT 10SM CLR 34/13 A2983 RMK AO2 SLP100 T03440128
 
KSMF - Sacramento Metro, California, USA
Distance from station: NNE 50mi, 51km
Updated: 07/13/2024 2:53pm
Mostly cloudy
Mostly cloudy
 Wind from SSW
Wind: SSW 8 mph , 13 km/h
Temperature: 97°F , 36°C
Dew Point: 57°F , 14°C
Humidity: 27%
Barometer: 29.82 inHg , 1009.8 hPa
Clouds: Mostly cloudy
Visibility: 10 miles , 16 km
Cloud details: Mostly cloudy 20000 ft
2024/07/13 21:53 KSMF 132153Z 21007KT 10SM BKN200 36/14 A2982 RMK AO2 SLP096 T03610139
KBAB - Beale AFB - Marysville, California, USA
Distance from station: NW 21mi, 34km
Updated: 07/13/2024 2:55pm
Partly cloudy
Partly cloudy
 Wind from SW
Wind: SW 7 mph , 11 km/h
Temperature: 95°F , 35°C
Dew Point: 57°F , 14°C
Humidity: 28%
Barometer: 29.81 inHg , 1009.5 hPa
Clouds: Partly cloudy
Visibility: 10 miles , 16 km
Cloud details: Partly cloudy 22000 ft
2024/07/13 21:55 KBAB 132155Z AUTO 22006KT 10SM SCT220 35/14 A2981 RMK AO2 SLP096 T03490136 $
 
KOVE - Oroville, California, USA
Distance from station: ESE 80mi, 43km
Updated: 07/10/2024 1:53pm
NOT Current
Clear
Clear
 Wind from SW
Wind: SW 3 mph , 6 km/h
Temperature: 100°F , 38°C
Dew Point: 61°F , 16°C
Humidity: 27%
Barometer: 29.84 inHg , 1010.5 hPa
Clouds: Clear
Visibility: 10 miles , 16 km
2024/07/10 20:53 KOVE 102053Z AUTO 23003KT 10SM CLR 38/16 A2984 RMK AO2 SLP104 T03780156 58010
KRDD - Redding, California, USA
Distance from station: SSE 225mi, 44km
Updated: 07/13/2024 2:53pm
Clear
Clear
 Wind from varies
Wind: varies 7 mph , 11 km/h
Temperature: 100°F , 38°C
Dew Point: 54°F , 12°C
Humidity: 21%
Barometer: 29.83 inHg , 1010.2 hPa
Clouds: Clear
Visibility: 10 miles , 16 km
2024/07/13 21:53 KRDD 132153Z VRB06KT 10SM CLR 38/12 A2983 RMK AO2 SLP094 T03780117 $
 
KTRK - Tahoe-Truckee, California, USA
Distance from station: NW 60mi, 49km
Updated: 07/13/2024 2:46pm
Mostly cloudy
Mostly cloudy
 Wind from WSW
Wind: WSW 14 mph , 22 km/h
Temperature: 86°F , 30°C
Dew Point: 39°F , 4°C
Humidity: 19%
Barometer: 30.28 inHg , 1025.4 hPa
Clouds: Mostly cloudy
Visibility: 10 miles , 16 km
Cloud details: Mostly cloudy 14000 ft
Mostly cloudy 16000 ft
2024/07/13 21:46 KTRK 132146Z 24012KT 10SM BKN140 BKN160 30/04 A3028 RMK CB ALQDS
KTVL - South Lake Tahoe, California, USA
Distance from station: N 45mi, 44km
Updated: 07/13/2024 2:53pm
Clear
Clear
 Wind from N
Wind: N 9 mph , 15 km/h
Temperature: 88°F , 31°C
Dew Point: 43°F , 6°C
Humidity: 21%
Barometer: 30.27 inHg , 1025.1 hPa
Clouds: Clear
Visibility: 10 miles , 16 km
2024/07/13 21:53 KTVL 132153Z AUTO 01008KT 10SM CLR 31/06 A3027 RMK AO2 LTG DSNT SE SLP165 T03110061
 
KBLU - EMIGRANT GAP, California, USA
Distance from station: NNW 31mi, 50km
Updated: 07/13/2024 1:52pm
Clear
Clear
 Wind from varies
Wind: varies 5 mph , 7 km/h
Temperature: 90°F , 32°C
Dew Point: 43°F , 6°C
Humidity: 20%
Barometer: 30.25 inHg , 1024.4 hPa
Clouds: Clear
Visibility: 10 miles , 16 km
2024/07/13 20:52 KBLU 132052Z AUTO VRB04KT 10SM CLR 32/06 A3025 RMK AO2 SLP102 T03170061 58004
KACV - Eureka, California, USA
Distance from station: ENE 387mi, 19km
Updated: 07/13/2024 2:53pm
Few Clouds
Few Clouds
 Wind from NW
Wind: NW 6 mph , 9 km/h
Temperature: 57°F , 14°C
Dew Point: 52°F , 11°C
Humidity: 82%
Barometer: 29.95 inHg , 1014.2 hPa
Clouds: Few Clouds
Visibility: 10 miles , 16 km
Cloud details: Few Clouds 400 ft
2024/07/13 21:53 KACV 132153Z AUTO 31005KT 10SM FEW004 14/11 A2995 RMK AO2 SLP147 T01440111